Time;durP1;ratioP1;P1;durP2;ratioP2;P2;SDS_P1;SDS_P2;PMS_P1;PMS_P2;Temp;Humidity;BMP_temperature;BMP_pressure;BME280_temperature;BME280_humidity;BME280_pressure;Samples;Min_cycle;Max_cycle;Signal;HPM_P1;HPM_P2
2023/05/13 00:01:22;;;;;;;3.50;2.30;;;;;;;8.52;59.82;95243.31;5073110;28;20089;-73
2023/05/13 00:03:47;;;;;;;4.78;2.33;;;;;;;8.64;59.85;95239.09;5056533;28;20048;-74
2023/05/13 00:06:13;;;;;;;3.90;1.73;;;;;;;8.63;58.49;95234.81;5073120;28;20089;-74
2023/05/13 00:08:38;;;;;;;2.97;1.90;;;;;;;8.61;58.34;95214.22;5091269;28;20599;-73
2023/05/13 00:11:04;;;;;;;3.95;2.20;;;;;;;8.64;59.21;95213.19;5091092;28;20020;-73
2023/05/13 00:13:30;;;;;;;4.93;1.95;;;;;;;8.78;57.18;95233.78;5073124;28;20046;-73
2023/05/13 00:15:55;;;;;;;4.15;2.00;;;;;;;8.69;56.58;95227.47;5090966;28;20024;-73
2023/05/13 00:18:21;;;;;;;5.55;1.95;;;;;;;8.73;56.65;95215.13;5073128;28;20024;-73
2023/05/13 00:20:46;;;;;;;3.67;1.70;;;;;;;8.78;56.63;95212.25;5091007;28;20065;-73
2023/05/13 00:23:11;;;;;;;4.70;2.17;;;;;;;8.59;57.09;95215.25;5056557;28;20044;-73
2023/05/13 00:25:37;;;;;;;4.18;1.75;;;;;;;8.71;57.28;95225.59;5056239;28;20444;-73
2023/05/13 00:28:03;;;;;;;2.90;1.90;;;;;;;8.65;57.26;95223.44;5091406;28;20089;-73
2023/05/13 00:30:29;;;;;;;6.22;2.08;;;;;;;8.62;59.05;95221.06;5072915;28;20107;-73
2023/05/13 00:32:54;;;;;;;3.20;1.90;;;;;;;8.74;57.09;95211.59;5056314;28;20501;-73
2023/05/13 00:35:20;;;;;;;5.40;2.00;;;;;;;8.68;57.42;95201.69;5072823;28;20024;-73
2023/05/13 00:37:45;;;;;;;7.68;2.10;;;;;;;8.53;58.39;95208.75;5072971;28;20040;-73
2023/05/13 00:40:24;;;;;;;3.83;2.33;;;;;;;8.56;58.20;95213.72;5072909;28;20036;-73
2023/05/13 00:42:49;;;;;;;3.85;2.50;;;;;;;8.67;58.96;95200.03;5074118;28;20024;-73
2023/05/13 00:45:15;;;;;;;5.18;2.10;;;;;;;8.61;57.79;95196.09;5056180;28;20040;-73
2023/05/13 00:47:41;;;;;;;3.88;2.08;;;;;;;8.65;57.08;95201.88;5072705;28;20048;-73
2023/05/13 00:50:08;;;;;;;2.88;2.00;;;;;;;8.55;56.89;95185.31;5072856;28;20027;-75
2023/05/13 00:52:33;;;;;;;3.83;2.13;;;;;;;8.48;57.71;95170.22;5072925;28;20032;-73
2023/05/13 00:54:59;;;;;;;4.25;2.65;;;;;;;8.62;57.57;95202.09;5056067;28;20050;-73
2023/05/13 00:57:24;;;;;;;4.65;2.20;;;;;;;8.65;57.57;95200.13;5090990;28;20497;-73
2023/05/13 00:59:50;;;;;;;3.03;2.40;;;;;;;8.74;57.60;95211.59;5072705;28;20040;-73
2023/05/13 01:02:26;;;;;;;3.05;2.03;;;;;;;8.73;57.01;95204.78;5072624;28;20047;-73
2023/05/13 01:05:01;;;;;;;3.35;2.00;;;;;;;8.72;55.95;95208.31;5056320;28;20059;-73
2023/05/13 01:07:42;;;;;;;3.00;1.88;;;;;;;8.47;55.96;95217.75;5076977;28;20036;-73
2023/05/13 01:10:15;;;;;;;4.65;2.08;;;;;;;8.48;56.88;95214.22;5076424;28;20460;-73
2023/05/13 01:12:42;;;;;;;3.25;1.90;;;;;;;8.27;55.29;95203.56;5076604;28;20032;-73
2023/05/13 01:15:16;;;;;;;3.80;2.17;;;;;;;8.29;54.69;95213.78;5076722;28;20031;-73
2023/05/13 01:18:05;;;;;;;3.00;2.00;;;;;;;8.40;54.96;95224.28;5043063;28;20122;-73
2023/05/13 01:20:30;;;;;;;2.70;1.98;;;;;;;8.44;55.86;95225.75;5094477;28;20524;-73
2023/05/13 01:22:56;;;;;;;2.47;1.60;;;;;;;8.37;53.97;95208.91;5059690;28;20032;-73
2023/05/13 01:25:22;;;;;;;2.67;1.90;;;;;;;8.35;53.17;95205.59;5093002;28;20486;-73
2023/05/13 01:27:48;;;;;;;2.85;1.73;;;;;;;8.45;53.67;95205.84;5094610;28;20074;-73
2023/05/13 01:30:14;;;;;;;4.75;2.08;;;;;;;8.25;51.15;95223.53;5059652;28;20112;-73
2023/05/13 01:32:39;;;;;;;3.38;2.15;;;;;;;8.35;52.58;95217.72;5093998;28;20024;-73
2023/05/13 01:35:05;;;;;;;4.53;2.40;;;;;;;8.34;57.61;95227.25;5076138;28;20062;-73
2023/05/13 01:37:30;;;;;;;2.53;1.90;;;;;;;8.37;58.60;95229.63;5059299;28;20039;-73
2023/05/13 01:39:56;;;;;;;3.55;2.22;;;;;;;8.18;62.61;95219.69;5094051;28;20031;-73
2023/05/13 01:42:28;;;;;;;4.43;2.42;;;;;;;8.20;60.30;95238.53;5059243;28;20494;-73
2023/05/13 01:44:53;;;;;;;3.80;2.22;;;;;;;8.24;62.16;95221.03;5075880;28;20533;-73
2023/05/13 01:47:18;;;;;;;2.90;2.22;;;;;;;8.37;62.36;95232.22;5058910;28;20036;-73
2023/05/13 01:49:44;;;;;;;3.63;2.22;;;;;;;8.21;64.13;95244.53;5093866;28;20027;-73
2023/05/13 01:52:09;;;;;;;3.97;2.25;;;;;;;8.31;59.94;95239.59;5059046;28;20109;-73
2023/05/13 01:54:35;;;;;;;2.55;1.88;;;;;;;8.25;59.36;95236.47;5093745;28;20032;-73
2023/05/13 01:57:00;;;;;;;2.75;1.85;;;;;;;8.18;56.45;95240.38;5059101;28;20032;-73
2023/05/13 01:59:26;;;;;;;4.53;1.80;;;;;;;8.32;55.21;95246.41;5075562;28;20020;-73
2023/05/13 02:01:51;;;;;;;3.03;1.90;;;;;;;8.46;55.30;95239.38;5075571;28;20410;-73
2023/05/13 02:04:17;;;;;;;4.85;2.00;;;;;;;8.41;54.93;95233.72;5058757;28;20044;-73
2023/05/13 02:06:42;;;;;;;3.10;1.70;;;;;;;8.41;55.46;95244.06;5058515;28;20036;-73
2023/05/13 02:09:08;;;;;;;3.45;1.60;;;;;;;8.53;55.40;95244.19;5058802;28;20028;-73
2023/05/13 02:11:34;;;;;;;2.88;1.95;;;;;;;8.54;54.20;95243.22;5058605;28;20043;-73
2023/05/13 02:14:00;;;;;;;3.38;1.92;;;;;;;8.51;56.04;95244.25;5093412;28;20020;-74
2023/05/13 02:16:25;;;;;;;3.83;2.10;;;;;;;8.39;59.11;95245.94;5093315;28;20043;-73
2023/05/13 02:18:50;;;;;;;3.90;2.33;;;;;;;8.47;57.05;95241.06;5075276;28;20032;-73
2023/05/13 02:21:16;;;;;;;2.40;1.80;;;;;;;8.49;56.17;95239.19;5075125;28;20032;-73
2023/05/13 02:23:41;;;;;;;4.03;2.05;;;;;;;8.51;59.42;95259.81;5093305;28;20497;-73
2023/05/13 02:26:07;;;;;;;6.80;2.33;;;;;;;8.27;59.33;95238.94;5092972;28;20085;-73
2023/05/13 02:28:32;;;;;;;3.80;2.20;;;;;;;8.44;56.62;95241.28;5075079;28;20032;-73
2023/05/13 02:30:58;;;;;;;5.22;2.17;;;;;;;8.33;56.56;95242.88;5092970;28;20027;-73
2023/05/13 02:33:23;;;;;;;4.72;2.20;;;;;;;8.29;57.21;95232.72;5058176;28;20035;-73
2023/05/13 02:35:49;;;;;;;3.38;2.25;;;;;;;8.26;57.58;95243.28;5074928;28;20044;-73
2023/05/13 02:38:14;;;;;;;3.58;2.35;;;;;;;8.29;58.72;95237.09;5093442;28;20543;-73
2023/05/13 02:40:39;;;;;;;5.78;2.50;;;;;;;8.22;59.33;95243.63;5074810;28;20027;-73
2023/05/13 02:43:05;;;;;;;4.85;2.22;;;;;;;8.31;59.21;95250.75;5074670;28;20036;-73
2023/05/13 02:45:31;;;;;;;3.60;2.40;;;;;;;8.29;58.70;95237.09;5074720;28;20406;-73
2023/05/13 02:47:57;;;;;;;3.83;2.35;;;;;;;8.35;57.46;95243.59;5058172;28;20086;-73
2023/05/13 02:50:22;;;;;;;3.45;2.40;;;;;;;8.37;58.01;95249.53;5074622;28;20073;-73
2023/05/13 02:52:48;;;;;;;3.90;2.50;;;;;;;8.35;59.09;95252.19;5093012;28;20040;-73
2023/05/13 02:55:13;;;;;;;4.32;2.45;;;;;;;8.24;57.47;95234.78;5074601;28;20020;-73
2023/05/13 02:57:39;;;;;;;4.55;2.70;;;;;;;8.26;56.19;95243.28;5057517;28;20043;-73
2023/05/13 03:00:05;;;;;;;5.90;2.33;;;;;;;8.23;56.32;95240.09;5091211;28;20031;-73
2023/05/13 03:02:33;;;;;;;5.03;2.42;;;;;;;8.12;56.97;95239.97;5091269;28;20047;-73
2023/05/13 03:04:59;;;;;;;4.45;2.63;;;;;;;8.20;56.28;95246.28;5074434;28;20135;-73
2023/05/13 03:07:24;;;;;;;3.70;2.53;;;;;;;8.16;56.82;95246.59;5074361;28;20083;-73
2023/05/13 03:09:50;;;;;;;3.97;2.53;;;;;;;8.30;56.98;95259.44;5057593;28;20502;-73
2023/05/13 03:12:15;;;;;;;4.50;2.75;;;;;;;8.28;57.57;95271.66;5057403;28;20524;-73
2023/05/13 03:14:43;;;;;;;3.38;2.47;;;;;;;8.27;57.70;95264.81;5074193;28;20430;-73
2023/05/13 03:17:08;;;;;;;4.43;2.65;;;;;;;8.27;58.07;95262.22;5074471;28;20152;-74
2023/05/13 03:19:35;;;;;;;3.35;2.40;;;;;;;8.31;58.53;95271.47;5057370;28;20490;-73
2023/05/13 03:22:00;;;;;;;4.15;2.38;;;;;;;8.25;59.19;95269.28;5057507;28;20055;-73
2023/05/13 03:24:26;;;;;;;4.70;2.58;;;;;;;8.10;59.01;95252.19;5074004;28;20510;-73
2023/05/13 03:26:51;;;;;;;5.32;2.85;;;;;;;8.00;59.21;95286.44;5092042;28;20043;-73
2023/05/13 03:29:17;;;;;;;4.45;2.92;;;;;;;7.95;59.68;95272.13;5091507;28;20116;-73
2023/05/13 03:31:42;;;;;;;5.85;2.55;;;;;;;7.98;59.99;95274.50;5057118;28;20043;-73
2023/05/13 03:34:07;;;;;;;3.15;2.38;;;;;;;7.96;59.20;95258.25;5092155;28;20028;-73
2023/05/13 03:36:33;;;;;;;5.53;3.00;;;;;;;8.15;61.21;95282.00;5073582;28;20046;-73
2023/05/13 03:38:58;;;;;;;3.65;2.42;;;;;;;8.11;59.88;95284.88;5057114;28;20027;-73
2023/05/13 03:41:24;;;;;;;5.60;2.72;;;;;;;8.09;58.85;95282.41;5073502;28;20036;-73
2023/05/13 03:43:50;;;;;;;4.32;2.45;;;;;;;8.02;59.93;95288.91;5073622;28;20020;-73
2023/05/13 03:46:15;;;;;;;4.68;2.80;;;;;;;8.22;60.97;95303.16;5073403;28;20032;-73
2023/05/13 03:48:41;;;;;;;3.95;2.33;;;;;;;8.29;59.02;95302.63;5073489;28;20544;-73
2023/05/13 03:51:06;;;;;;;4.80;2.83;;;;;;;8.36;58.41;95295.28;5091475;28;20027;-73
2023/05/13 03:53:31;;;;;;;4.50;2.75;;;;;;;8.29;58.81;95289.69;5073475;28;20028;-73
2023/05/13 03:55:57;;;;;;;3.95;2.65;;;;;;;8.33;58.27;95290.31;5073265;28;20028;-73
2023/05/13 03:58:22;;;;;;;3.67;2.53;;;;;;;8.31;59.02;95297.34;5073307;28;20506;-73
2023/05/13 04:00:48;;;;;;;3.80;2.40;;;;;;;8.39;58.66;95300.28;5091434;28;20024;-73
2023/05/13 04:03:15;;;;;;;6.10;2.50;;;;;;;8.44;59.03;95305.16;5073261;28;20047;-74
2023/05/13 04:05:40;;;;;;;3.75;2.53;;;;;;;8.36;59.25;95297.03;5040164;28;20024;-73
2023/05/13 04:08:06;;;;;;;4.18;2.58;;;;;;;8.48;58.72;95314.38;5073039;28;20097;-73
2023/05/13 04:10:31;;;;;;;3.63;2.25;;;;;;;8.59;58.32;95316.25;5056620;28;20516;-73
2023/05/13 04:12:57;;;;;;;4.05;2.90;;;;;;;8.58;58.37;95325.81;5091605;28;20024;-73
2023/05/13 04:15:22;;;;;;;4.35;2.75;;;;;;;8.54;59.00;95302.78;5073213;28;20028;-73
2023/05/13 04:17:47;;;;;;;4.35;2.60;;;;;;;8.63;59.80;95322.88;5073128;28;20054;-73
2023/05/13 04:20:13;;;;;;;4.95;3.17;;;;;;;8.58;59.25;95327.53;5056381;28;20027;-73
2023/05/13 04:22:38;;;;;;;4.05;2.65;;;;;;;8.60;59.48;95325.69;5056478;28;20501;-73
2023/05/13 04:25:04;;;;;;;3.72;2.60;;;;;;;8.54;59.23;95318.31;5056386;28;20028;-73
2023/05/13 04:27:30;;;;;;;7.00;2.67;;;;;;;8.48;60.13;95311.78;5056171;28;20463;-73
2023/05/13 04:29:55;;;;;;;5.38;2.50;;;;;;;8.60;60.60;95326.50;5073031;28;20027;-73
2023/05/13 04:32:21;;;;;;;4.68;2.90;;;;;;;8.56;60.85;95319.88;5089686;28;20097;-73
2023/05/13 04:34:47;;;;;;;3.63;2.75;;;;;;;8.54;61.31;95328.69;5056225;28;20035;-73
2023/05/13 04:37:13;;;;;;;4.28;2.63;;;;;;;8.39;61.55;95339.13;5039565;28;20044;-73
2023/05/13 04:39:38;;;;;;;5.45;2.60;;;;;;;8.43;61.44;95350.94;5072109;28;20410;-73
2023/05/13 04:42:04;;;;;;;5.32;2.90;;;;;;;8.29;61.80;95335.44;5072740;28;20423;-73
2023/05/13 04:44:31;;;;;;;5.70;2.92;;;;;;;8.31;62.13;95341.34;5056364;28;20112;-74
2023/05/13 04:46:56;;;;;;;3.92;2.35;;;;;;;8.14;62.23;95305.41;5090856;28;20140;-73
2023/05/13 04:49:22;;;;;;;5.25;2.72;;;;;;;8.27;61.98;95314.84;5072762;28;20115;-73
2023/05/13 04:51:47;;;;;;;5.25;2.90;;;;;;;8.47;61.81;95344.63;5055856;28;20032;-73
2023/05/13 04:54:12;;;;;;;4.00;3.00;;;;;;;8.53;62.01;95342.56;5072652;28;20039;-73
2023/05/13 04:56:38;;;;;;;4.53;2.90;;;;;;;8.63;63.21;95335.84;5090772;28;20105;-73
2023/05/13 04:59:04;;;;;;;3.58;2.67;;;;;;;8.71;61.59;95341.31;5055993;28;20036;-73
2023/05/13 05:01:29;;;;;;;4.90;2.72;;;;;;;8.83;60.48;95340.53;5090953;28;20032;-73
2023/05/13 05:03:56;;;;;;;4.70;2.83;;;;;;;8.83;60.44;95321.53;5090567;28;20052;-73
2023/05/13 05:06:22;;;;;;;3.88;2.88;;;;;;;8.86;59.98;95332.53;5072417;28;20426;-73
2023/05/13 05:08:47;;;;;;;6.20;3.08;;;;;;;9.08;59.61;95331.06;5090619;28;20027;-73
2023/05/13 05:11:13;;;;;;;4.45;2.38;;;;;;;9.39;58.74;95324.59;5072492;28;20043;-73
2023/05/13 05:13:38;;;;;;;3.97;2.50;;;;;;;9.86;58.18;95320.38;5055861;28;20024;-73
2023/05/13 05:16:04;;;;;;;4.18;2.67;;;;;;;10.17;56.62;95313.81;5072300;28;20660;-74
2023/05/13 05:18:29;;;;;;;6.45;2.85;;;;;;;10.58;56.71;95322.09;5055863;28;20036;-73
2023/05/13 05:20:55;;;;;;;4.75;2.97;;;;;;;10.71;56.51;95331.44;5055617;28;20482;-74
2023/05/13 05:23:20;;;;;;;3.08;2.47;;;;;;;11.02;55.18;95315.31;5055789;28;20054;-74
2023/05/13 05:25:46;;;;;;;3.47;2.60;;;;;;;11.05;55.14;95315.88;5090354;28;20145;-73
2023/05/13 05:28:11;;;;;;;6.85;3.90;;;;;;;11.39;54.35;95331.47;5055643;28;20040;-73
2023/05/13 05:30:39;;;;;;;4.13;3.20;;;;;;;11.43;53.79;95329.50;5055754;28;20020;-74
2023/05/13 05:33:05;;;;;;;6.13;3.70;;;;;;;11.25;54.30;95311.75;5072783;28;20062;-75
2023/05/13 05:35:32;;;;;;;6.10;4.32;;;;;;;11.83;53.47;95319.34;5072319;28;20030;-75
2023/05/13 05:37:58;;;;;;;7.95;5.10;;;;;;;12.07;52.62;95320.03;5072584;28;20119;-75
2023/05/13 05:40:23;;;;;;;6.75;3.80;;;;;;;12.41;51.61;95324.28;5072301;28;20036;-75
2023/05/13 05:42:49;;;;;;;5.63;3.83;;;;;;;12.60;51.45;95321.00;5072133;28;20096;-75
2023/05/13 05:45:14;;;;;;;7.35;4.20;;;;;;;12.54;50.25;95285.84;5072300;28;20024;-76
2023/05/13 05:47:40;;;;;;;7.07;4.88;;;;;;;12.66;51.50;95310.88;5072265;28;20383;-75
2023/05/13 05:50:05;;;;;;;7.22;4.75;;;;;;;12.68;52.03;95335.03;5055478;28;20028;-76
2023/05/13 05:52:31;;;;;;;7.95;4.93;;;;;;;12.88;53.08;95324.72;5057912;28;20032;-75
2023/05/13 05:54:57;;;;;;;8.88;5.60;;;;;;;12.89;53.06;95326.38;5093861;28;20020;-75
2023/05/13 05:57:22;;;;;;;15.70;8.90;;;;;;;12.90;52.72;95328.84;5075552;28;20036;-75
2023/05/13 05:59:48;;;;;;;14.05;7.57;;;;;;;12.77;53.17;95333.44;5075611;28;20052;-75
2023/05/13 06:02:13;;;;;;;8.90;6.78;;;;;;;12.95;52.78;95318.03;5058855;28;20047;-75
2023/05/13 06:04:40;;;;;;;11.75;6.50;;;;;;;13.17;52.63;95330.06;5075413;28;20043;-75
2023/05/13 06:07:06;;;;;;;9.82;5.97;;;;;;;13.30;52.36;95335.94;5075676;28;20039;-76
2023/05/13 06:09:31;;;;;;;7.55;5.90;;;;;;;13.36;51.85;95311.94;5093514;28;20108;-76
2023/05/13 06:11:57;;;;;;;8.32;5.82;;;;;;;13.57;52.38;95337.16;5075393;28;20032;-76
2023/05/13 06:14:22;;;;;;;9.57;6.13;;;;;;;13.54;51.41;95325.19;5058770;28;20028;-75
2023/05/13 06:16:47;;;;;;;10.93;6.70;;;;;;;13.56;51.41;95309.38;5058631;28;20055;-74
2023/05/13 06:19:13;;;;;;;12.00;7.95;;;;;;;14.01;51.11;95314.13;5075233;28;20101;-75
2023/05/13 06:21:38;;;;;;;21.48;10.93;;;;;;;14.33;49.57;95339.22;5075136;28;20036;-74
2023/05/13 06:24:04;;;;;;;9.85;7.05;;;;;;;14.21;50.48;95335.91;5058501;28;20028;-74
2023/05/13 06:26:30;;;;;;;7.95;6.10;;;;;;;13.60;51.38;95342.09;5093151;28;20040;-74
2023/05/13 06:28:56;;;;;;;9.35;6.40;;;;;;;13.06;53.38;95332.78;5058863;28;20077;-74
2023/05/13 06:31:21;;;;;;;11.40;6.88;;;;;;;13.38;53.15;95341.34;5093121;28;20032;-75
2023/05/13 06:33:46;;;;;;;16.02;7.82;;;;;;;13.61;52.88;95347.19;5058366;28;20414;-74
2023/05/13 06:36:13;;;;;;;16.63;11.52;;;;;;;14.07;52.00;95334.50;5074798;28;20032;-74
2023/05/13 06:38:38;;;;;;;20.58;12.73;;;;;;;14.29;52.42;95342.09;5058178;28;20073;-75
2023/05/13 06:41:03;;;;;;;12.95;8.63;;;;;;;14.46;52.06;95345.00;5074784;28;20448;-74
2023/05/13 06:43:29;;;;;;;16.85;11.20;;;;;;;14.55;51.10;95344.19;5092852;28;20028;-74
2023/05/13 06:45:54;;;;;;;17.50;10.50;;;;;;;14.68;50.21;95344.72;5057932;28;20030;-74
2023/05/13 06:48:20;;;;;;;10.93;7.15;;;;;;;14.97;49.54;95338.63;5058185;28;20031;-74
2023/05/13 06:50:46;;;;;;;8.45;6.20;;;;;;;15.11;49.42;95347.81;5074641;28;20032;-74
2023/05/13 06:53:11;;;;;;;24.30;14.00;;;;;;;14.95;48.66;95309.16;5074548;28;20040;-74
2023/05/13 06:55:40;;;;;;;17.23;10.60;;;;;;;15.22;49.13;95339.78;5057970;28;20085;-74
2023/05/13 06:58:09;;;;;;;10.13;6.50;;;;;;;15.31;48.80;95335.50;5075122;28;20089;-74
2023/05/13 07:00:38;;;;;;;10.05;6.95;;;;;;;15.22;48.01;95331.94;5092485;28;20032;-74
2023/05/13 07:03:04;;;;;;;12.52;8.38;;;;;;;15.49;48.44;95338.16;5040426;28;20040;-75
2023/05/13 07:05:30;;;;;;;12.20;7.00;;;;;;;15.14;48.38;95337.88;5074412;28;20036;-75
2023/05/13 07:07:57;;;;;;;8.88;6.72;;;;;;;15.46;48.02;95333.22;5041108;28;20048;-74
2023/05/13 07:10:23;;;;;;;9.88;6.85;;;;;;;15.52;47.63;95333.50;5057548;28;20035;-74
2023/05/13 07:12:48;;;;;;;12.57;6.63;;;;;;;15.33;47.37;95339.63;5057709;28;20055;-75
2023/05/13 07:15:13;;;;;;;12.63;6.53;;;;;;;15.35;46.94;95315.91;5057507;28;20032;-74
2023/05/13 07:17:39;;;;;;;11.85;6.30;;;;;;;15.52;47.25;95348.38;5057690;28;20298;-75
2023/05/13 07:20:06;;;;;;;11.05;7.85;;;;;;;15.62;46.43;95325.56;5074008;28;20028;-75
2023/05/13 07:22:31;;;;;;;10.50;7.38;;;;;;;15.97;45.31;95348.44;5074051;28;20039;-74
2023/05/13 07:24:57;;;;;;;8.38;6.00;;;;;;;15.96;46.03;95354.63;5057433;28;20028;-74
2023/05/13 07:27:22;;;;;;;9.23;6.15;;;;;;;15.42;45.96;95340.53;5090762;28;20517;-74
2023/05/13 07:29:47;;;;;;;7.20;5.90;;;;;;;14.78;47.96;95338.66;5073969;28;20111;-75
2023/05/13 07:32:13;;;;;;;12.52;6.35;;;;;;;15.01;48.10;95350.44;5092300;28;20036;-73
2023/05/13 07:34:38;;;;;;;9.27;6.15;;;;;;;14.98;46.89;95345.50;5057221;28;20028;-74
2023/05/13 07:37:04;;;;;;;11.88;6.80;;;;;;;15.07;48.15;95360.38;5073789;28;20039;-74
2023/05/13 07:39:30;;;;;;;8.07;4.90;;;;;;;14.50;47.33;95356.81;5057140;28;20099;-74
2023/05/13 07:41:55;;;;;;;7.00;5.28;;;;;;;15.04;46.42;95341.47;5057077;28;20046;-74
2023/05/13 07:44:20;;;;;;;9.48;4.53;;;;;;;15.38;45.56;95354.91;5057315;28;20028;-75
2023/05/13 07:46:47;;;;;;;8.65;5.57;;;;;;;14.46;46.68;95342.38;5090433;28;20032;-75
2023/05/13 07:49:12;;;;;;;6.85;4.90;;;;;;;14.59;46.43;95353.38;5057129;28;20229;-74
2023/05/13 07:51:38;;;;;;;6.43;4.93;;;;;;;14.77;45.20;95356.16;5056923;28;20517;-75
2023/05/13 07:54:03;;;;;;;9.63;5.70;;;;;;;14.68;46.24;95349.97;5056912;28;20555;-74
2023/05/13 07:56:29;;;;;;;7.30;4.65;;;;;;;14.98;45.24;95355.97;5073479;28;20043;-75
2023/05/13 07:58:55;;;;;;;7.60;4.72;;;;;;;15.17;44.47;95340.22;5091606;28;20028;-74
2023/05/13 08:01:20;;;;;;;8.60;4.95;;;;;;;15.50;44.05;95351.13;5056605;28;20060;-75
2023/05/13 08:03:46;;;;;;;7.47;5.03;;;;;;;15.64;44.07;95342.78;5073224;28;20048;-75
2023/05/13 08:06:11;;;;;;;7.15;5.07;;;;;;;15.89;43.29;95353.59;5091314;28;20052;-74
2023/05/13 08:08:36;;;;;;;8.82;4.72;;;;;;;15.62;43.46;95357.81;5073317;28;20036;-74
2023/05/13 08:11:02;;;;;;;10.82;5.03;;;;;;;15.84;42.58;95354.03;5056433;28;20024;-74
2023/05/13 08:13:27;;;;;;;6.60;4.68;;;;;;;15.90;42.20;95352.59;5089993;28;20474;-74
2023/05/13 08:15:53;;;;;;;8.80;4.75;;;;;;;15.97;42.81;95366.78;5056226;28;20020;-74
2023/05/13 08:18:18;;;;;;;6.50;5.05;;;;;;;15.85;43.90;95349.59;5073175;28;20456;-73
2023/05/13 08:20:44;;;;;;;9.20;4.97;;;;;;;16.20;43.25;95353.25;5073031;28;20032;-74
2023/05/13 08:23:09;;;;;;;7.95;4.18;;;;;;;16.17;42.65;95348.31;5056697;28;20319;-75
2023/05/13 08:25:35;;;;;;;13.82;5.00;;;;;;;15.60;43.67;95354.53;5073078;28;20028;-74
2023/05/13 08:28:02;;;;;;;9.00;5.10;;;;;;;15.98;43.97;95347.47;5056375;28;20042;-75
2023/05/13 08:30:27;;;;;;;10.98;7.25;;;;;;;16.28;43.20;95340.25;5056409;28;20080;-74
2023/05/13 08:32:52;;;;;;;6.78;5.05;;;;;;;16.31;42.78;95337.31;5073402;28;20024;-74
2023/05/13 08:35:18;;;;;;;6.30;4.90;;;;;;;16.55;44.42;95331.47;5073115;28;20028;-74
2023/05/13 08:37:43;;;;;;;8.20;5.10;;;;;;;16.81;42.43;95330.72;5073070;28;20040;-74
2023/05/13 08:40:11;;;;;;;8.15;5.43;;;;;;;16.80;42.25;95322.03;5073044;28;20024;-74
2023/05/13 08:42:37;;;;;;;7.20;5.22;;;;;;;16.94;42.44;95325.91;5089750;28;20105;-75
2023/05/13 08:45:06;;;;;;;7.63;4.85;;;;;;;17.08;41.65;95327.97;5056397;28;20417;-74
2023/05/13 08:47:53;;;;;;;13.27;6.60;;;;;;;17.19;42.17;95324.25;5057234;28;20431;-74
2023/05/13 08:50:19;;;;;;;7.18;5.18;;;;;;;17.08;42.10;95312.22;5042327;28;20035;-74
2023/05/13 08:52:45;;;;;;;9.68;5.50;;;;;;;16.83;43.11;95316.47;5056255;28;20052;-75
2023/05/13 08:55:10;;;;;;;11.02;5.57;;;;;;;17.13;41.98;95324.84;5072803;28;20059;-74
2023/05/13 08:57:36;;;;;;;5.80;4.47;;;;;;;17.30;42.40;95325.78;5072741;28;20028;-74
2023/05/13 09:00:03;;;;;;;13.43;6.43;;;;;;;17.45;42.16;95324.22;5056193;28;20028;-75
2023/05/13 09:02:29;;;;;;;8.68;4.82;;;;;;;16.94;43.90;95320.66;5073075;28;20032;-74
2023/05/13 09:04:55;;;;;;;8.50;5.22;;;;;;;17.25;42.86;95313.13;5056076;28;20058;-74
2023/05/13 09:07:21;;;;;;;6.88;4.57;;;;;;;17.12;42.72;95304.84;5090498;28;20036;-74
2023/05/13 09:09:46;;;;;;;9.93;6.72;;;;;;;17.08;42.59;95296.47;5056052;28;20490;-75
2023/05/13 09:12:12;;;;;;;6.35;5.07;;;;;;;16.87;43.40;95302.06;5055903;28;20399;-74
2023/05/13 09:14:38;;;;;;;8.77;4.53;;;;;;;17.29;43.43;95306.56;5056084;28;20070;-74
2023/05/13 09:17:04;;;;;;;7.07;5.05;;;;;;;17.29;42.67;95298.69;5055911;28;20036;-74
2023/05/13 09:19:29;;;;;;;6.80;5.05;;;;;;;17.04;43.06;95299.53;5055965;28;20392;-74
2023/05/13 09:21:56;;;;;;;9.50;5.35;;;;;;;17.17;43.15;95298.16;5090450;28;20044;-74
2023/05/13 09:24:21;;;;;;;5.93;4.75;;;;;;;17.23;43.86;95299.34;5055841;28;20028;-74
2023/05/13 09:26:48;;;;;;;7.13;4.80;;;;;;;17.43;42.65;95303.34;5056995;28;20168;-74
2023/05/13 09:29:24;;;;;;;8.20;5.35;;;;;;;17.39;43.28;95269.72;5094825;28;20027;-74
2023/05/13 09:31:57;;;;;;;7.15;4.82;;;;;;;17.71;43.13;95291.81;5060186;28;20111;-74
2023/05/13 09:34:26;;;;;;;8.45;5.85;;;;;;;17.96;43.18;95295.38;5076785;28;20028;-74
2023/05/13 09:37:02;;;;;;;10.05;6.18;;;;;;;18.06;41.90;95301.31;5076038;28;20036;-74
2023/05/13 09:39:27;;;;;;;12.15;7.15;;;;;;;17.96;41.89;95295.38;5076462;28;20077;-74
2023/05/13 09:41:53;;;;;;;8.75;5.68;;;;;;;17.83;42.39;95294.03;5076065;28;20453;-74
2023/05/13 09:44:20;;;;;;;6.63;5.20;;;;;;;17.92;42.51;95283.56;5059497;28;20031;-74
2023/05/13 09:46:45;;;;;;;6.82;5.03;;;;;;;17.64;43.50;95283.75;5059548;28;20039;-74
2023/05/13 09:49:11;;;;;;;9.40;5.35;;;;;;;17.77;42.92;95267.53;5076342;28;20016;-74
2023/05/13 09:51:36;;;;;;;7.85;5.50;;;;;;;17.79;42.90;95269.03;5076011;28;20032;-78
2023/05/13 09:54:05;;;;;;;8.38;4.80;;;;;;;17.85;42.49;95257.88;5076233;28;20036;-76
2023/05/13 09:56:34;;;;;;;6.85;4.97;;;;;;;17.94;42.38;95266.63;5043158;28;20384;-76
2023/05/13 09:59:00;;;;;;;7.85;5.22;;;;;;;18.18;42.61;95267.66;5076571;28;20383;-75
2023/05/13 10:01:27;;;;;;;7.40;5.07;;;;;;;17.75;42.55;95274.78;5093936;28;20032;-74
2023/05/13 10:03:53;;;;;;;8.38;5.38;;;;;;;18.05;42.10;95271.59;5072403;28;20040;-74
2023/05/13 10:06:21;;;;;;;8.48;5.57;;;;;;;17.79;42.32;95257.72;5088961;28;20483;-74
2023/05/13 10:08:46;;;;;;;7.57;4.97;;;;;;;17.51;43.41;95273.69;5055926;28;20089;-74
2023/05/13 10:11:14;;;;;;;9.38;6.00;;;;;;;17.92;43.80;95275.66;5072005;28;20482;-74
2023/05/13 10:13:40;;;;;;;10.00;5.28;;;;;;;18.11;43.65;95272.75;5039295;28;20020;-74
2023/05/13 10:16:05;;;;;;;12.98;8.00;;;;;;;18.31;42.22;95275.88;5072191;28;20098;-74
2023/05/13 10:18:31;;;;;;;9.90;5.72;;;;;;;18.44;42.74;95272.75;5055594;28;20096;-74
2023/05/13 10:20:56;;;;;;;6.60;5.13;;;;;;;18.54;42.59;95279.50;5038917;28;20025;-74
2023/05/13 10:23:22;;;;;;;7.45;5.45;;;;;;;18.15;41.82;95258.28;5072343;28;20052;-74
2023/05/13 10:25:49;;;;;;;8.55;5.00;;;;;;;17.86;42.37;95270.06;5088852;28;20085;-74
2023/05/13 10:28:15;;;;;;;7.13;5.10;;;;;;;18.13;42.60;95260.25;5073665;28;20371;-74
2023/05/13 10:30:41;;;;;;;8.50;5.40;;;;;;;18.41;42.60;95262.56;5072070;28;20027;-75
2023/05/13 10:33:06;;;;;;;8.93;6.10;;;;;;;18.45;42.43;95246.28;5072167;28;20045;-74
2023/05/13 10:35:35;;;;;;;9.75;4.90;;;;;;;18.62;41.25;95244.47;5055299;28;20079;-74
2023/05/13 10:38:24;;;;;;;6.72;4.75;;;;;;;18.78;40.68;95270.00;5054241;28;20037;-74
2023/05/13 10:41:35;;;;;;;11.55;6.57;;;;;;;18.82;40.87;95249.41;5071839;28;20025;-74
2023/05/13 10:44:00;;;;;;;8.70;5.90;;;;;;;18.94;40.55;95262.06;5034046;28;20052;-74
2023/05/13 10:46:26;;;;;;;9.40;5.32;;;;;;;18.85;42.07;95259.59;5054615;28;20052;-74
2023/05/13 10:49:00;;;;;;;9.60;5.15;;;;;;;18.73;41.03;95257.28;5038348;28;20043;-74
2023/05/13 10:51:26;;;;;;;6.38;4.43;;;;;;;18.64;41.42;95279.34;5072889;28;20037;-74
2023/05/13 10:53:56;;;;;;;6.35;4.90;;;;;;;18.55;41.26;95254.00;5071490;28;20035;-74
2023/05/13 10:56:23;;;;;;;7.03;5.22;;;;;;;18.60;41.86;95282.47;5055033;28;20547;-74
2023/05/13 10:58:58;;;;;;;9.48;5.85;;;;;;;18.60;42.00;95277.19;5071356;28;20048;-74
2023/05/13 11:01:28;;;;;;;8.75;5.80;;;;;;;18.57;41.94;95283.59;5071091;28;20048;-74
2023/05/13 11:03:55;;;;;;;8.18;4.95;;;;;;;18.58;42.02;95269.47;5071159;28;20049;-74
2023/05/13 11:06:33;;;;;;;7.65;5.38;;;;;;;18.48;41.81;95274.09;5087907;28;20398;-75
2023/05/13 11:08:59;;;;;;;8.65;5.63;;;;;;;18.46;41.88;95282.13;5072426;28;20475;-74
2023/05/13 11:11:26;;;;;;;6.80;4.88;;;;;;;18.54;41.02;95278.69;5072215;28;20040;-74
2023/05/13 11:14:02;;;;;;;8.73;6.03;;;;;;;18.15;41.98;95278.50;5054520;28;20025;-75
2023/05/13 11:16:28;;;;;;;7.68;5.70;;;;;;;18.31;41.80;95276.69;5054522;28;20036;-75
2023/05/13 11:18:53;;;;;;;8.02;5.13;;;;;;;18.51;42.73;95276.38;5072308;28;20085;-75
2023/05/13 11:21:32;;;;;;;9.90;5.35;;;;;;;18.70;42.13;95269.97;5071179;28;20037;-75
2023/05/13 11:24:05;;;;;;;9.65;5.57;;;;;;;18.72;41.81;95266.19;5087580;28;20021;-75
2023/05/13 11:26:44;;;;;;;8.75;5.50;;;;;;;18.77;40.94;95244.63;5055001;28;20028;-74
2023/05/13 11:29:09;;;;;;;7.10;5.35;;;;;;;18.87;41.90;95252.38;5070562;28;20449;-75
2023/05/13 11:31:42;;;;;;;7.22;4.95;;;;;;;19.17;41.49;95242.94;5070588;28;20029;-74
2023/05/13 11:34:11;;;;;;;9.60;5.25;;;;;;;19.27;41.80;95240.06;5070669;28;20032;-74